sensor_id;sensor_type;location;lat;lon;timestamp;temperature;humidity
25140;DHT22;39015;48.106;-1.682;2023-03-14T08:07:50;14.60;78.40
25140;DHT22;39015;48.106;-1.682;2023-03-14T08:10:18;14.60;78.40
25140;DHT22;39015;48.106;-1.682;2023-03-14T08:12:49;14.60;78.30
25140;DHT22;39015;48.106;-1.682;2023-03-14T08:15:16;14.70;78.20
25140;DHT22;39015;48.106;-1.682;2023-03-14T08:17:43;14.70;78.20
25140;DHT22;39015;48.106;-1.682;2023-03-14T08:20:11;14.60;78.10
25140;DHT22;39015;48.106;-1.682;2023-03-14T08:22:40;14.60;78.10
25140;DHT22;39015;48.106;-1.682;2023-03-14T08:25:09;14.60;78.10
25140;DHT22;39015;48.106;-1.682;2023-03-14T08:27:37;14.60;78.10
25140;DHT22;39015;48.106;-1.682;2023-03-14T08:30:05;14.70;78.20
25140;DHT22;39015;48.106;-1.682;2023-03-14T08:32:33;14.60;78.10
25140;DHT22;39015;48.106;-1.682;2023-03-14T08:35:01;14.60;78.10
25140;DHT22;39015;48.106;-1.682;2023-03-14T08:37:29;14.60;78.10
25140;DHT22;39015;48.106;-1.682;2023-03-14T08:39:57;14.60;78.10
25140;DHT22;39015;48.106;-1.682;2023-03-14T08:42:29;14.70;78.10
25140;DHT22;39015;48.106;-1.682;2023-03-14T08:44:56;14.60;78.10
25140;DHT22;39015;48.106;-1.682;2023-03-14T08:47:24;14.70;78.00
25140;DHT22;39015;48.106;-1.682;2023-03-14T08:49:51;14.70;78.00
25140;DHT22;39015;48.106;-1.682;2023-03-14T08:52:18;14.70;78.00
25140;DHT22;39015;48.106;-1.682;2023-03-14T08:54:46;14.70;77.90
25140;DHT22;39015;48.106;-1.682;2023-03-14T08:57:14;14.60;77.80
25140;DHT22;39015;48.106;-1.682;2023-03-14T08:59:42;14.70;77.80
25140;DHT22;39015;48.106;-1.682;2023-03-14T09:02:11;14.70;77.80
25140;DHT22;39015;48.106;-1.682;2023-03-14T09:04:39;14.70;77.50
25140;DHT22;39015;48.106;-1.682;2023-03-14T09:07:07;14.70;77.60
25140;DHT22;39015;48.106;-1.682;2023-03-14T09:09:34;14.70;77.50
25140;DHT22;39015;48.106;-1.682;2023-03-14T09:12:01;14.70;78.20
25140;DHT22;39015;48.106;-1.682;2023-03-14T09:14:29;14.70;77.20
25140;DHT22;39015;48.106;-1.682;2023-03-14T09:16:57;14.80;77.30
25140;DHT22;39015;48.106;-1.682;2023-03-14T09:19:24;14.80;77.40
25140;DHT22;39015;48.106;-1.682;2023-03-14T09:21:52;14.80;77.10
25140;DHT22;39015;48.106;-1.682;2023-03-14T09:24:19;14.80;77.00
25140;DHT22;39015;48.106;-1.682;2023-03-14T09:26:46;14.80;76.80
25140;DHT22;39015;48.106;-1.682;2023-03-14T09:29:13;14.80;76.80
25140;DHT22;39015;48.106;-1.682;2023-03-14T09:31:41;14.80;76.60
25140;DHT22;39015;48.106;-1.682;2023-03-14T09:34:09;14.80;76.70
25140;DHT22;39015;48.106;-1.682;2023-03-14T09:36:39;14.90;76.60
25140;DHT22;39015;48.106;-1.682;2023-03-14T09:39:19;14.90;76.60
25140;DHT22;39015;48.106;-1.682;2023-03-14T09:41:51;14.90;76.60
25140;DHT22;39015;48.106;-1.682;2023-03-14T09:44:26;14.90;76.50
25140;DHT22;39015;48.106;-1.682;2023-03-14T09:46:57;14.90;76.30
25140;DHT22;39015;48.106;-1.682;2023-03-14T09:49:28;15.00;76.30
25140;DHT22;39015;48.106;-1.682;2023-03-14T09:51:59;15.00;76.20
25140;DHT22;39015;48.106;-1.682;2023-03-14T09:54:31;15.00;76.10
25140;DHT22;39015;48.106;-1.682;2023-03-14T09:56:59;15.00;76.10
25140;DHT22;39015;48.106;-1.682;2023-03-14T09:59:29;15.10;76.20
25140;DHT22;39015;48.106;-1.682;2023-03-14T10:01:58;15.10;76.00
25140;DHT22;39015;48.106;-1.682;2023-03-14T10:04:33;15.10;75.90
25140;DHT22;39015;48.106;-1.682;2023-03-14T10:07:00;15.10;76.00
25140;DHT22;39015;48.106;-1.682;2023-03-14T10:09:27;15.10;75.60
25140;DHT22;39015;48.106;-1.682;2023-03-14T10:11:56;15.10;75.70
25140;DHT22;39015;48.106;-1.682;2023-03-14T10:14:30;15.20;75.70
25140;DHT22;39015;48.106;-1.682;2023-03-14T10:17:05;15.10;75.60
25140;DHT22;39015;48.106;-1.682;2023-03-14T10:19:34;15.10;75.60
25140;DHT22;39015;48.106;-1.682;2023-03-14T10:22:03;15.10;75.70
25140;DHT22;39015;48.106;-1.682;2023-03-14T10:24:31;15.10;75.60
25140;DHT22;39015;48.106;-1.682;2023-03-14T10:27:00;15.10;75.50
25140;DHT22;39015;48.106;-1.682;2023-03-14T10:29:28;15.10;75.60
25140;DHT22;39015;48.106;-1.682;2023-03-14T10:31:58;15.10;75.30
25140;DHT22;39015;48.106;-1.682;2023-03-14T10:34:30;15.10;75.30
25140;DHT22;39015;48.106;-1.682;2023-03-14T10:37:07;15.10;75.10
25140;DHT22;39015;48.106;-1.682;2023-03-14T10:39:44;15.10;75.20
25140;DHT22;39015;48.106;-1.682;2023-03-14T10:42:20;15.10;75.30
25140;DHT22;39015;48.106;-1.682;2023-03-14T10:44:58;15.20;75.40
25140;DHT22;39015;48.106;-1.682;2023-03-14T10:47:27;15.10;75.50
25140;DHT22;39015;48.106;-1.682;2023-03-14T10:49:55;15.10;75.40
25140;DHT22;39015;48.106;-1.682;2023-03-14T10:52:25;15.10;75.20
25140;DHT22;39015;48.106;-1.682;2023-03-14T10:54:56;15.20;75.40
25140;DHT22;39015;48.106;-1.682;2023-03-14T10:57:24;15.20;75.10
25140;DHT22;39015;48.106;-1.682;2023-03-14T10:59:52;15.20;74.90
25140;DHT22;39015;48.106;-1.682;2023-03-14T11:02:47;15.20;74.90
25140;DHT22;39015;48.106;-1.682;2023-03-14T11:05:29;15.20;74.80
25140;DHT22;39015;48.106;-1.682;2023-03-14T11:08:01;15.20;74.80
25140;DHT22;39015;48.106;-1.682;2023-03-14T11:10:33;15.20;74.90
25140;DHT22;39015;48.106;-1.682;2023-03-14T11:13:07;15.20;74.90
25140;DHT22;39015;48.106;-1.682;2023-03-14T11:15:41;15.20;75.10
25140;DHT22;39015;48.106;-1.682;2023-03-14T11:21:23;15.30;75.00
25140;DHT22;39015;48.106;-1.682;2023-03-14T11:24:04;15.30;74.90
25140;DHT22;39015;48.106;-1.682;2023-03-14T11:26:48;15.30;74.90
25140;DHT22;39015;48.106;-1.682;2023-03-14T11:29:28;15.40;75.00
25140;DHT22;39015;48.106;-1.682;2023-03-14T11:32:01;15.40;74.80
25140;DHT22;39015;48.106;-1.682;2023-03-14T11:34:32;15.40;74.80
25140;DHT22;39015;48.106;-1.682;2023-03-14T11:37:05;15.40;74.90
25140;DHT22;39015;48.106;-1.682;2023-03-14T11:39:39;15.40;75.00
25140;DHT22;39015;48.106;-1.682;2023-03-14T11:42:11;15.50;74.80
25140;DHT22;39015;48.106;-1.682;2023-03-14T11:44:40;15.50;74.80
25140;DHT22;39015;48.106;-1.682;2023-03-14T11:47:12;15.50;74.50
25140;DHT22;39015;48.106;-1.682;2023-03-14T11:49:45;15.50;74.10
25140;DHT22;39015;48.106;-1.682;2023-03-14T11:52:19;15.50;74.10
25140;DHT22;39015;48.106;-1.682;2023-03-14T11:54:52;15.50;74.30
25140;DHT22;39015;48.106;-1.682;2023-03-14T11:57:21;15.50;74.40
25140;DHT22;39015;48.106;-1.682;2023-03-14T11:59:52;15.50;74.30
25140;DHT22;39015;48.106;-1.682;2023-03-14T12:02:25;15.50;74.40
25140;DHT22;39015;48.106;-1.682;2023-03-14T12:05:16;15.50;74.20
25140;DHT22;39015;48.106;-1.682;2023-03-14T12:08:02;15.50;74.10
25140;DHT22;39015;48.106;-1.682;2023-03-14T12:10:40;15.50;74.00
25140;DHT22;39015;48.106;-1.682;2023-03-14T12:13:09;15.50;73.70
25140;DHT22;39015;48.106;-1.682;2023-03-14T12:15:39;15.50;73.70
25140;DHT22;39015;48.106;-1.682;2023-03-14T12:18:19;15.50;73.80
25140;DHT22;39015;48.106;-1.682;2023-03-14T12:20:52;15.50;74.10
25140;DHT22;39015;48.106;-1.682;2023-03-14T12:23:20;15.50;74.30
25140;DHT22;39015;48.106;-1.682;2023-03-14T12:26:07;15.50;74.20
25140;DHT22;39015;48.106;-1.682;2023-03-14T12:28:34;15.60;74.20
25140;DHT22;39015;48.106;-1.682;2023-03-14T12:34:02;15.60;74.00
25140;DHT22;39015;48.106;-1.682;2023-03-14T12:36:51;15.60;73.90
25140;DHT22;39015;48.106;-1.682;2023-03-14T12:39:25;15.60;73.80
25140;DHT22;39015;48.106;-1.682;2023-03-14T12:42:04;15.60;73.80
25140;DHT22;39015;48.106;-1.682;2023-03-14T12:44:43;15.60;73.90
25140;DHT22;39015;48.106;-1.682;2023-03-14T12:56:04;15.70;73.80
25140;DHT22;39015;48.106;-1.682;2023-03-14T12:58:35;15.80;73.70
25140;DHT22;39015;48.106;-1.682;2023-03-14T13:01:06;15.70;73.70
25140;DHT22;39015;48.106;-1.682;2023-03-14T13:03:45;15.70;73.50
25140;DHT22;39015;48.106;-1.682;2023-03-14T13:06:47;15.80;73.60
25140;DHT22;39015;48.106;-1.682;2023-03-14T13:12:34;15.80;73.50
25140;DHT22;39015;48.106;-1.682;2023-03-14T13:15:18;15.80;73.40
25140;DHT22;39015;48.106;-1.682;2023-03-14T13:17:48;15.70;73.30
25140;DHT22;39015;48.106;-1.682;2023-03-14T13:20:21;15.80;73.30
25140;DHT22;39015;48.106;-1.682;2023-03-14T13:22:49;15.70;73.00
25140;DHT22;39015;48.106;-1.682;2023-03-14T13:25:17;15.80;73.00
25140;DHT22;39015;48.106;-1.682;2023-03-14T13:27:47;15.70;72.60
25140;DHT22;39015;48.106;-1.682;2023-03-14T13:30:22;15.70;72.70
25140;DHT22;39015;48.106;-1.682;2023-03-14T13:32:50;15.70;72.50
25140;DHT22;39015;48.106;-1.682;2023-03-14T13:35:20;15.70;72.50
25140;DHT22;39015;48.106;-1.682;2023-03-14T13:37:55;15.70;72.50
25140;DHT22;39015;48.106;-1.682;2023-03-14T13:40:30;15.70;72.60
25140;DHT22;39015;48.106;-1.682;2023-03-14T13:43:16;15.70;72.40
25140;DHT22;39015;48.106;-1.682;2023-03-14T13:45:49;15.70;72.40
25140;DHT22;39015;48.106;-1.682;2023-03-14T13:48:17;15.70;72.60
25140;DHT22;39015;48.106;-1.682;2023-03-14T13:50:56;15.70;72.50
25140;DHT22;39015;48.106;-1.682;2023-03-14T13:53:26;15.70;72.60
25140;DHT22;39015;48.106;-1.682;2023-03-14T13:55:53;15.70;72.50
25140;DHT22;39015;48.106;-1.682;2023-03-14T13:58:24;15.70;72.40
25140;DHT22;39015;48.106;-1.682;2023-03-14T14:01:14;15.70;72.40
25140;DHT22;39015;48.106;-1.682;2023-03-14T14:03:45;15.70;72.40
25140;DHT22;39015;48.106;-1.682;2023-03-14T14:06:27;15.70;72.40
25140;DHT22;39015;48.106;-1.682;2023-03-14T14:08:57;15.70;72.50
25140;DHT22;39015;48.106;-1.682;2023-03-14T14:11:36;15.70;72.60
25140;DHT22;39015;48.106;-1.682;2023-03-14T14:14:11;15.70;72.50
25140;DHT22;39015;48.106;-1.682;2023-03-14T14:16:44;15.70;72.50
25140;DHT22;39015;48.106;-1.682;2023-03-14T14:19:13;15.70;72.50
25140;DHT22;39015;48.106;-1.682;2023-03-14T14:21:42;15.70;72.40
25140;DHT22;39015;48.106;-1.682;2023-03-14T14:24:12;15.70;72.40
25140;DHT22;39015;48.106;-1.682;2023-03-14T14:26:40;15.70;72.30
25140;DHT22;39015;48.106;-1.682;2023-03-14T14:29:29;15.70;72.30
25140;DHT22;39015;48.106;-1.682;2023-03-14T14:32:03;15.70;72.40
25140;DHT22;39015;48.106;-1.682;2023-03-14T14:34:38;15.70;72.40
25140;DHT22;39015;48.106;-1.682;2023-03-14T14:37:17;15.70;73.30
25140;DHT22;39015;48.106;-1.682;2023-03-14T14:39:45;15.70;72.30
25140;DHT22;39015;48.106;-1.682;2023-03-14T14:42:14;15.70;72.30
25140;DHT22;39015;48.106;-1.682;2023-03-14T14:44:43;15.70;72.20
25140;DHT22;39015;48.106;-1.682;2023-03-14T14:47:23;15.70;72.20
25140;DHT22;39015;48.106;-1.682;2023-03-14T14:49:52;15.70;72.50
25140;DHT22;39015;48.106;-1.682;2023-03-14T14:52:20;15.70;72.70
25140;DHT22;39015;48.106;-1.682;2023-03-14T14:54:58;15.70;72.40
25140;DHT22;39015;48.106;-1.682;2023-03-14T14:57:30;15.80;72.10
25140;DHT22;39015;48.106;-1.682;2023-03-14T15:00:04;15.80;72.00
25140;DHT22;39015;48.106;-1.682;2023-03-14T15:02:44;15.80;72.00
25140;DHT22;39015;48.106;-1.682;2023-03-14T15:05:13;15.70;71.90
25140;DHT22;39015;48.106;-1.682;2023-03-14T15:07:41;15.70;71.90
25140;DHT22;39015;48.106;-1.682;2023-03-14T15:10:11;15.70;71.90
25140;DHT22;39015;48.106;-1.682;2023-03-14T15:12:38;15.70;72.20
25140;DHT22;39015;48.106;-1.682;2023-03-14T15:15:06;15.70;72.20
25140;DHT22;39015;48.106;-1.682;2023-03-14T15:17:34;15.70;72.10
25140;DHT22;39015;48.106;-1.682;2023-03-14T15:20:05;15.70;72.20
25140;DHT22;39015;48.106;-1.682;2023-03-14T15:22:33;15.70;71.80
25140;DHT22;39015;48.106;-1.682;2023-03-14T15:25:00;15.70;71.50
25140;DHT22;39015;48.106;-1.682;2023-03-14T15:27:28;15.70;71.50
25140;DHT22;39015;48.106;-1.682;2023-03-14T15:29:57;15.70;71.60
25140;DHT22;39015;48.106;-1.682;2023-03-14T15:32:24;15.70;71.40
25140;DHT22;39015;48.106;-1.682;2023-03-14T15:34:52;15.70;71.50
25140;DHT22;39015;48.106;-1.682;2023-03-14T15:37:22;15.70;71.30
25140;DHT22;39015;48.106;-1.682;2023-03-14T15:39:50;15.80;71.20
25140;DHT22;39015;48.106;-1.682;2023-03-14T15:42:18;15.80;71.20
25140;DHT22;39015;48.106;-1.682;2023-03-14T15:44:46;15.80;70.60
25140;DHT22;39015;48.106;-1.682;2023-03-14T15:47:14;15.80;70.80
25140;DHT22;39015;48.106;-1.682;2023-03-14T15:49:43;15.80;70.50
25140;DHT22;39015;48.106;-1.682;2023-03-14T15:52:10;15.80;70.70
25140;DHT22;39015;48.106;-1.682;2023-03-14T15:54:39;15.80;70.50
25140;DHT22;39015;48.106;-1.682;2023-03-14T15:57:11;15.80;70.30
25140;DHT22;39015;48.106;-1.682;2023-03-14T15:59:41;15.80;70.30
25140;DHT22;39015;48.106;-1.682;2023-03-14T16:02:18;15.80;71.30
25140;DHT22;39015;48.106;-1.682;2023-03-14T16:04:54;15.80;70.30
25140;DHT22;39015;48.106;-1.682;2023-03-14T16:07:25;15.80;70.30
25140;DHT22;39015;48.106;-1.682;2023-03-14T16:10:01;15.90;70.40
25140;DHT22;39015;48.106;-1.682;2023-03-14T16:12:32;15.90;70.40
25140;DHT22;39015;48.106;-1.682;2023-03-14T16:15:08;15.90;70.50
25140;DHT22;39015;48.106;-1.682;2023-03-14T16:17:37;15.90;70.50
25140;DHT22;39015;48.106;-1.682;2023-03-14T16:20:10;15.90;70.30
25140;DHT22;39015;48.106;-1.682;2023-03-14T16:22:37;15.90;70.50
25140;DHT22;39015;48.106;-1.682;2023-03-14T16:25:07;15.90;70.30
25140;DHT22;39015;48.106;-1.682;2023-03-14T16:27:35;15.90;70.30
25140;DHT22;39015;48.106;-1.682;2023-03-14T16:30:03;15.90;70.30
25140;DHT22;39015;48.106;-1.682;2023-03-14T16:32:33;16.00;70.40
25140;DHT22;39015;48.106;-1.682;2023-03-14T16:35:04;16.00;70.40
25140;DHT22;39015;48.106;-1.682;2023-03-14T16:37:33;15.90;70.00
25140;DHT22;39015;48.106;-1.682;2023-03-14T16:40:00;16.00;70.10
25140;DHT22;39015;48.106;-1.682;2023-03-14T16:42:28;15.90;70.10
25140;DHT22;39015;48.106;-1.682;2023-03-14T16:44:55;15.90;70.30
25140;DHT22;39015;48.106;-1.682;2023-03-14T16:47:22;15.90;70.30
25140;DHT22;39015;48.106;-1.682;2023-03-14T16:49:49;15.90;70.30
25140;DHT22;39015;48.106;-1.682;2023-03-14T16:52:16;15.90;70.20
25140;DHT22;39015;48.106;-1.682;2023-03-14T16:54:43;15.90;70.40
25140;DHT22;39015;48.106;-1.682;2023-03-14T16:57:10;15.90;70.30
25140;DHT22;39015;48.106;-1.682;2023-03-14T16:59:39;15.90;70.30
25140;DHT22;39015;48.106;-1.682;2023-03-14T17:02:07;15.90;70.40
25140;DHT22;39015;48.106;-1.682;2023-03-14T17:04:34;15.90;70.40
25140;DHT22;39015;48.106;-1.682;2023-03-14T17:07:01;15.90;71.30
25140;DHT22;39015;48.106;-1.682;2023-03-14T17:09:28;15.90;70.30
25140;DHT22;39015;48.106;-1.682;2023-03-14T17:11:56;15.90;70.30
25140;DHT22;39015;48.106;-1.682;2023-03-14T17:14:23;15.90;70.30
25140;DHT22;39015;48.106;-1.682;2023-03-14T17:16:52;15.90;70.30
25140;DHT22;39015;48.106;-1.682;2023-03-14T17:19:19;15.90;70.40
25140;DHT22;39015;48.106;-1.682;2023-03-14T17:21:46;15.90;70.40
25140;DHT22;39015;48.106;-1.682;2023-03-14T17:24:13;15.90;70.30
25140;DHT22;39015;48.106;-1.682;2023-03-14T17:26:41;15.90;70.40
25140;DHT22;39015;48.106;-1.682;2023-03-14T17:29:08;15.90;70.30
25140;DHT22;39015;48.106;-1.682;2023-03-14T17:31:35;15.90;70.30
25140;DHT22;39015;48.106;-1.682;2023-03-14T17:34:05;15.90;70.30
25140;DHT22;39015;48.106;-1.682;2023-03-14T17:36:32;15.80;70.30
25140;DHT22;39015;48.106;-1.682;2023-03-14T17:38:59;15.90;70.40
25140;DHT22;39015;48.106;-1.682;2023-03-14T17:41:26;15.90;70.30
25140;DHT22;39015;48.106;-1.682;2023-03-14T17:43:53;15.90;70.30
25140;DHT22;39015;48.106;-1.682;2023-03-14T17:46:21;15.90;70.20
25140;DHT22;39015;48.106;-1.682;2023-03-14T17:48:52;15.80;70.30
25140;DHT22;39015;48.106;-1.682;2023-03-14T17:51:27;15.90;70.20
25140;DHT22;39015;48.106;-1.682;2023-03-14T17:53:54;15.90;70.10
25140;DHT22;39015;48.106;-1.682;2023-03-14T17:56:21;15.90;70.00
25140;DHT22;39015;48.106;-1.682;2023-03-14T17:58:49;15.90;70.00
25140;DHT22;39015;48.106;-1.682;2023-03-14T18:01:18;15.80;69.80
25140;DHT22;39015;48.106;-1.682;2023-03-14T18:03:46;15.80;69.80
25140;DHT22;39015;48.106;-1.682;2023-03-14T18:06:15;15.80;69.80
25140;DHT22;39015;48.106;-1.682;2023-03-14T18:08:44;15.80;69.90
25140;DHT22;39015;48.106;-1.682;2023-03-14T18:11:12;15.80;69.90
25140;DHT22;39015;48.106;-1.682;2023-03-14T18:13:40;15.90;70.00
25140;DHT22;39015;48.106;-1.682;2023-03-14T18:16:10;15.90;69.90
25140;DHT22;39015;48.106;-1.682;2023-03-14T18:18:39;15.90;69.80
25140;DHT22;39015;48.106;-1.682;2023-03-14T18:21:07;15.90;69.90
25140;DHT22;39015;48.106;-1.682;2023-03-14T18:23:36;15.90;70.00
25140;DHT22;39015;48.106;-1.682;2023-03-14T18:26:04;15.90;69.80
25140;DHT22;39015;48.106;-1.682;2023-03-14T18:28:32;15.90;69.80
25140;DHT22;39015;48.106;-1.682;2023-03-14T18:31:00;15.90;69.80
25140;DHT22;39015;48.106;-1.682;2023-03-14T18:33:27;15.90;69.80
25140;DHT22;39015;48.106;-1.682;2023-03-14T18:35:54;15.90;69.80
25140;DHT22;39015;48.106;-1.682;2023-03-14T18:38:21;15.90;69.80
25140;DHT22;39015;48.106;-1.682;2023-03-14T18:40:48;15.90;69.70
25140;DHT22;39015;48.106;-1.682;2023-03-14T18:43:18;15.90;69.60
25140;DHT22;39015;48.106;-1.682;2023-03-14T18:45:45;15.90;69.40
25140;DHT22;39015;48.106;-1.682;2023-03-14T18:48:12;15.90;69.60
25140;DHT22;39015;48.106;-1.682;2023-03-14T18:50:40;15.90;70.10
25140;DHT22;39015;48.106;-1.682;2023-03-14T18:53:07;16.00;69.90
25140;DHT22;39015;48.106;-1.682;2023-03-14T18:55:36;16.00;69.90
25140;DHT22;39015;48.106;-1.682;2023-03-14T18:58:03;16.00;69.60
25140;DHT22;39015;48.106;-1.682;2023-03-14T19:00:32;16.00;69.50
25140;DHT22;39015;48.106;-1.682;2023-03-14T19:03:00;16.00;69.50
25140;DHT22;39015;48.106;-1.682;2023-03-14T19:05:28;16.00;69.50
25140;DHT22;39015;48.106;-1.682;2023-03-14T19:07:56;15.90;69.60
25140;DHT22;39015;48.106;-1.682;2023-03-14T19:10:23;15.90;69.50
25140;DHT22;39015;48.106;-1.682;2023-03-14T19:12:51;15.90;69.40
25140;DHT22;39015;48.106;-1.682;2023-03-14T19:15:18;15.90;69.50
25140;DHT22;39015;48.106;-1.682;2023-03-14T19:17:47;15.90;69.40
25140;DHT22;39015;48.106;-1.682;2023-03-14T19:20:14;15.90;69.50
25140;DHT22;39015;48.106;-1.682;2023-03-14T19:22:41;15.90;69.50
25140;DHT22;39015;48.106;-1.682;2023-03-14T19:25:09;15.90;69.60
25140;DHT22;39015;48.106;-1.682;2023-03-14T19:27:36;15.90;69.40
25140;DHT22;39015;48.106;-1.682;2023-03-14T19:30:04;15.80;69.20
25140;DHT22;39015;48.106;-1.682;2023-03-14T19:32:32;15.80;69.10
25140;DHT22;39015;48.106;-1.682;2023-03-14T19:35:00;15.80;69.20
25140;DHT22;39015;48.106;-1.682;2023-03-14T19:37:27;15.80;69.10
25140;DHT22;39015;48.106;-1.682;2023-03-14T19:39:54;15.90;69.10
25140;DHT22;39015;48.106;-1.682;2023-03-14T19:42:21;15.80;69.00
25140;DHT22;39015;48.106;-1.682;2023-03-14T19:44:48;15.80;69.20
25140;DHT22;39015;48.106;-1.682;2023-03-14T19:47:15;15.80;69.10
25140;DHT22;39015;48.106;-1.682;2023-03-14T19:49:42;15.70;69.00
25140;DHT22;39015;48.106;-1.682;2023-03-14T19:52:11;15.70;69.90
25140;DHT22;39015;48.106;-1.682;2023-03-14T19:54:38;15.80;69.00
25140;DHT22;39015;48.106;-1.682;2023-03-14T19:57:07;15.70;69.00
25140;DHT22;39015;48.106;-1.682;2023-03-14T19:59:34;15.70;69.00
25140;DHT22;39015;48.106;-1.682;2023-03-14T20:02:01;15.70;69.10
25140;DHT22;39015;48.106;-1.682;2023-03-14T20:04:28;15.70;68.90
25140;DHT22;39015;48.106;-1.682;2023-03-14T20:06:55;15.70;69.00
25140;DHT22;39015;48.106;-1.682;2023-03-14T20:09:24;15.60;69.00
25140;DHT22;39015;48.106;-1.682;2023-03-14T20:11:51;15.60;69.00
25140;DHT22;39015;48.106;-1.682;2023-03-14T20:14:18;15.60;69.00
25140;DHT22;39015;48.106;-1.682;2023-03-14T20:16:46;15.60;69.00
25140;DHT22;39015;48.106;-1.682;2023-03-14T20:19:14;15.60;69.20
25140;DHT22;39015;48.106;-1.682;2023-03-14T20:21:41;15.60;69.20
25140;DHT22;39015;48.106;-1.682;2023-03-14T20:24:08;15.50;69.10
25140;DHT22;39015;48.106;-1.682;2023-03-14T20:26:36;15.50;69.00
25140;DHT22;39015;48.106;-1.682;2023-03-14T20:29:04;15.60;69.10
25140;DHT22;39015;48.106;-1.682;2023-03-14T20:31:31;15.60;69.00
25140;DHT22;39015;48.106;-1.682;2023-03-14T20:34:02;15.50;68.90
25140;DHT22;39015;48.106;-1.682;2023-03-14T20:36:30;15.50;68.90
25140;DHT22;39015;48.106;-1.682;2023-03-14T20:38:59;15.50;68.90
25140;DHT22;39015;48.106;-1.682;2023-03-14T20:41:27;15.50;68.90
25140;DHT22;39015;48.106;-1.682;2023-03-14T20:43:55;15.50;68.80
25140;DHT22;39015;48.106;-1.682;2023-03-14T20:46:22;15.50;68.80
25140;DHT22;39015;48.106;-1.682;2023-03-14T20:48:49;15.50;68.80
25140;DHT22;39015;48.106;-1.682;2023-03-14T20:51:16;15.50;68.70
25140;DHT22;39015;48.106;-1.682;2023-03-14T20:53:43;15.50;68.60
25140;DHT22;39015;48.106;-1.682;2023-03-14T20:56:10;15.50;68.60
25140;DHT22;39015;48.106;-1.682;2023-03-14T20:58:37;15.50;68.60
25140;DHT22;39015;48.106;-1.682;2023-03-14T21:01:07;15.50;68.70
25140;DHT22;39015;48.106;-1.682;2023-03-14T21:03:34;15.40;68.70
25140;DHT22;39015;48.106;-1.682;2023-03-14T21:06:01;15.40;68.50
25140;DHT22;39015;48.106;-1.682;2023-03-14T21:08:30;15.40;68.50
25140;DHT22;39015;48.106;-1.682;2023-03-14T21:10:57;15.40;68.70
25140;DHT22;39015;48.106;-1.682;2023-03-14T21:13:24;15.40;68.60
25140;DHT22;39015;48.106;-1.682;2023-03-14T21:15:53;15.40;68.60
25140;DHT22;39015;48.106;-1.682;2023-03-14T21:18:21;15.40;68.70
25140;DHT22;39015;48.106;-1.682;2023-03-14T21:20:51;15.30;68.50
25140;DHT22;39015;48.106;-1.682;2023-03-14T21:23:20;15.30;68.50
25140;DHT22;39015;48.106;-1.682;2023-03-14T21:25:51;15.30;68.50
25140;DHT22;39015;48.106;-1.682;2023-03-14T21:28:22;15.30;68.40
25140;DHT22;39015;48.106;-1.682;2023-03-14T21:31:02;15.30;68.40
25140;DHT22;39015;48.106;-1.682;2023-03-14T21:33:32;15.30;68.40
25140;DHT22;39015;48.106;-1.682;2023-03-14T21:36:06;15.30;68.30
25140;DHT22;39015;48.106;-1.682;2023-03-14T21:38:35;15.30;68.20
25140;DHT22;39015;48.106;-1.682;2023-03-14T21:41:03;15.30;68.20
25140;DHT22;39015;48.106;-1.682;2023-03-14T21:43:32;15.30;68.10
25140;DHT22;39015;48.106;-1.682;2023-03-14T21:45:59;15.30;68.10
